sensor_id;sensor_type;location;lat;lon;timestamp;temperature;humidity
47604;DHT22;33326;51.116;6.900;2022-10-04T00:04:24;12.80;99.90
47604;DHT22;33326;51.116;6.900;2022-10-04T00:09:32;12.70;99.90
47604;DHT22;33326;51.116;6.900;2022-10-04T00:14:38;12.60;99.90
47604;DHT22;33326;51.116;6.900;2022-10-04T00:19:45;12.70;99.90
47604;DHT22;33326;51.116;6.900;2022-10-04T00:25:20;12.70;99.90
47604;DHT22;33326;51.116;6.900;2022-10-04T00:30:37;12.80;99.90
47604;DHT22;33326;51.116;6.900;2022-10-04T00:35:47;12.80;99.90
47604;DHT22;33326;51.116;6.900;2022-10-04T00:40:51;12.70;99.90
47604;DHT22;33326;51.116;6.900;2022-10-04T00:45:59;12.80;99.90
47604;DHT22;33326;51.116;6.900;2022-10-04T00:51:18;12.70;99.90
47604;DHT22;33326;51.116;6.900;2022-10-04T00:56:29;12.70;99.90
47604;DHT22;33326;51.116;6.900;2022-10-04T01:01:34;12.70;99.90
47604;DHT22;33326;51.116;6.900;2022-10-04T01:06:37;12.70;99.90
47604;DHT22;33326;51.116;6.900;2022-10-04T01:11:43;12.70;99.90
47604;DHT22;33326;51.116;6.900;2022-10-04T01:16:50;12.60;99.90
47604;DHT22;33326;51.116;6.900;2022-10-04T01:21:58;12.60;99.90
47604;DHT22;33326;51.116;6.900;2022-10-04T01:27:33;12.70;99.90
47604;DHT22;33326;51.116;6.900;2022-10-04T01:32:37;12.60;99.90
47604;DHT22;33326;51.116;6.900;2022-10-04T01:37:39;12.60;99.90
47604;DHT22;33326;51.116;6.900;2022-10-04T01:42:46;12.60;99.90
47604;DHT22;33326;51.116;6.900;2022-10-04T01:47:52;12.60;99.90
47604;DHT22;33326;51.116;6.900;2022-10-04T01:53:01;12.60;99.90
47604;DHT22;33326;51.116;6.900;2022-10-04T01:58:13;12.60;99.90
47604;DHT22;33326;51.116;6.900;2022-10-04T02:03:20;12.70;99.90
47604;DHT22;33326;51.116;6.900;2022-10-04T02:08:27;12.70;99.90
47604;DHT22;33326;51.116;6.900;2022-10-04T02:13:34;12.60;99.90
47604;DHT22;33326;51.116;6.900;2022-10-04T02:18:38;12.60;99.90
47604;DHT22;33326;51.116;6.900;2022-10-04T02:23:41;12.50;99.90
47604;DHT22;33326;51.116;6.900;2022-10-04T02:28:45;12.50;99.90
47604;DHT22;33326;51.116;6.900;2022-10-04T02:33:48;12.50;99.90
47604;DHT22;33326;51.116;6.900;2022-10-04T02:38:55;12.40;99.90
47604;DHT22;33326;51.116;6.900;2022-10-04T02:44:03;12.40;99.90
47604;DHT22;33326;51.116;6.900;2022-10-04T02:49:12;12.40;99.90
47604;DHT22;33326;51.116;6.900;2022-10-04T02:54:22;12.40;99.90
47604;DHT22;33326;51.116;6.900;2022-10-04T02:59:31;12.40;99.90
47604;DHT22;33326;51.116;6.900;2022-10-04T03:04:37;12.40;99.90
47604;DHT22;33326;51.116;6.900;2022-10-04T03:09:40;12.30;99.90
47604;DHT22;33326;51.116;6.900;2022-10-04T03:14:43;12.30;99.90
47604;DHT22;33326;51.116;6.900;2022-10-04T03:19:47;12.30;99.90
47604;DHT22;33326;51.116;6.900;2022-10-04T03:24:51;12.20;99.90
47604;DHT22;33326;51.116;6.900;2022-10-04T03:29:56;12.20;99.90
47604;DHT22;33326;51.116;6.900;2022-10-04T03:35:00;12.10;99.90
47604;DHT22;33326;51.116;6.900;2022-10-04T03:40:06;12.10;99.90
47604;DHT22;33326;51.116;6.900;2022-10-04T03:45:14;12.00;99.90
47604;DHT22;33326;51.116;6.900;2022-10-04T03:50:21;12.00;99.90
47604;DHT22;33326;51.116;6.900;2022-10-04T03:55:32;11.90;99.90
47604;DHT22;33326;51.116;6.900;2022-10-04T04:00:40;11.90;99.90
47604;DHT22;33326;51.116;6.900;2022-10-04T04:05:46;11.90;99.90
47604;DHT22;33326;51.116;6.900;2022-10-04T04:10:52;11.80;99.90
47604;DHT22;33326;51.116;6.900;2022-10-04T04:15:59;11.80;99.90
47604;DHT22;33326;51.116;6.900;2022-10-04T04:21:03;11.70;99.90
47604;DHT22;33326;51.116;6.900;2022-10-04T04:26:15;11.70;99.90
47604;DHT22;33326;51.116;6.900;2022-10-04T04:31:24;11.70;99.90
47604;DHT22;33326;51.116;6.900;2022-10-04T04:36:28;11.70;99.90
47604;DHT22;33326;51.116;6.900;2022-10-04T04:41:32;11.60;99.90
47604;DHT22;33326;51.116;6.900;2022-10-04T04:46:37;11.70;99.90
47604;DHT22;33326;51.116;6.900;2022-10-04T04:51:40;11.80;99.90
47604;DHT22;33326;51.116;6.900;2022-10-04T04:56:48;11.80;99.90
47604;DHT22;33326;51.116;6.900;2022-10-04T05:01:53;11.80;99.90
47604;DHT22;33326;51.116;6.900;2022-10-04T05:07:00;11.70;99.90
47604;DHT22;33326;51.116;6.900;2022-10-04T05:12:07;11.60;99.90
47604;DHT22;33326;51.116;6.900;2022-10-04T05:17:17;11.60;99.90
47604;DHT22;33326;51.116;6.900;2022-10-04T05:22:22;11.60;99.90
47604;DHT22;33326;51.116;6.900;2022-10-04T05:27:28;11.50;99.90
47604;DHT22;33326;51.116;6.900;2022-10-04T05:32:39;11.40;99.90
47604;DHT22;33326;51.116;6.900;2022-10-04T05:37:50;11.40;99.90
47604;DHT22;33326;51.116;6.900;2022-10-04T05:42:54;11.50;99.90
47604;DHT22;33326;51.116;6.900;2022-10-04T05:48:00;11.40;99.90
47604;DHT22;33326;51.116;6.900;2022-10-04T05:53:17;11.40;99.90
47604;DHT22;33326;51.116;6.900;2022-10-04T05:58:43;11.30;99.90
47604;DHT22;33326;51.116;6.900;2022-10-04T06:04:03;11.30;99.90
47604;DHT22;33326;51.116;6.900;2022-10-04T06:09:14;11.40;99.90
47604;DHT22;33326;51.116;6.900;2022-10-04T06:14:48;11.40;99.90
47604;DHT22;33326;51.116;6.900;2022-10-04T06:25:38;11.30;99.90
47604;DHT22;33326;51.116;6.900;2022-10-04T06:30:51;11.40;99.90
47604;DHT22;33326;51.116;6.900;2022-10-04T06:36:25;11.50;99.90
47604;DHT22;33326;51.116;6.900;2022-10-04T06:41:48;11.60;99.90
47604;DHT22;33326;51.116;6.900;2022-10-04T06:47:02;11.60;99.90
47604;DHT22;33326;51.116;6.900;2022-10-04T06:52:23;11.60;99.90
47604;DHT22;33326;51.116;6.900;2022-10-04T06:57:55;11.60;99.90
47604;DHT22;33326;51.116;6.900;2022-10-04T07:03:07;11.70;99.90
47604;DHT22;33326;51.116;6.900;2022-10-04T07:08:17;11.70;99.90
47604;DHT22;33326;51.116;6.900;2022-10-04T07:13:38;11.80;99.90
47604;DHT22;33326;51.116;6.900;2022-10-04T07:18:56;11.90;99.90
47604;DHT22;33326;51.116;6.900;2022-10-04T07:24:00;12.10;99.90
47604;DHT22;33326;51.116;6.900;2022-10-04T07:29:11;12.30;99.90
47604;DHT22;33326;51.116;6.900;2022-10-04T07:34:25;12.40;99.90
47604;DHT22;33326;51.116;6.900;2022-10-04T07:39:39;12.50;99.90
47604;DHT22;33326;51.116;6.900;2022-10-04T07:44:52;12.60;99.90
47604;DHT22;33326;51.116;6.900;2022-10-04T07:49:56;12.70;99.90
47604;DHT22;33326;51.116;6.900;2022-10-04T07:55:11;12.70;99.90
47604;DHT22;33326;51.116;6.900;2022-10-04T08:00:21;12.70;99.90
47604;DHT22;33326;51.116;6.900;2022-10-04T08:05:28;12.70;99.90
47604;DHT22;33326;51.116;6.900;2022-10-04T08:10:39;12.80;99.90
47604;DHT22;33326;51.116;6.900;2022-10-04T08:15:45;12.70;99.90
47604;DHT22;33326;51.116;6.900;2022-10-04T08:20:52;12.70;99.90
47604;DHT22;33326;51.116;6.900;2022-10-04T08:26:06;12.80;99.90
47604;DHT22;33326;51.116;6.900;2022-10-04T08:31:19;12.90;99.90
47604;DHT22;33326;51.116;6.900;2022-10-04T08:36:37;12.90;99.90
47604;DHT22;33326;51.116;6.900;2022-10-04T08:42:15;12.80;99.90
47604;DHT22;33326;51.116;6.900;2022-10-04T08:53:41;13.30;99.90
47604;DHT22;33326;51.116;6.900;2022-10-04T08:58:58;13.60;99.90
47604;DHT22;33326;51.116;6.900;2022-10-04T09:09:52;14.10;99.90
47604;DHT22;33326;51.116;6.900;2022-10-04T09:20:58;14.80;99.90
47604;DHT22;33326;51.116;6.900;2022-10-04T09:26:08;15.00;99.90
47604;DHT22;33326;51.116;6.900;2022-10-04T09:31:39;15.30;99.90
47604;DHT22;33326;51.116;6.900;2022-10-04T09:37:01;15.70;99.90
47604;DHT22;33326;51.116;6.900;2022-10-04T09:47:43;16.50;99.90
47604;DHT22;33326;51.116;6.900;2022-10-04T09:52:51;16.60;99.90
47604;DHT22;33326;51.116;6.900;2022-10-04T09:58:23;17.00;99.90
47604;DHT22;33326;51.116;6.900;2022-10-04T10:03:55;17.20;99.90
47604;DHT22;33326;51.116;6.900;2022-10-04T10:09:14;17.50;99.90
47604;DHT22;33326;51.116;6.900;2022-10-04T10:15:00;17.80;99.90
47604;DHT22;33326;51.116;6.900;2022-10-04T10:20:36;18.20;99.90
47604;DHT22;33326;51.116;6.900;2022-10-04T10:25:55;18.40;99.90
47604;DHT22;33326;51.116;6.900;2022-10-04T10:31:16;18.30;99.90
47604;DHT22;33326;51.116;6.900;2022-10-04T10:36:45;18.70;99.90
47604;DHT22;33326;51.116;6.900;2022-10-04T10:47:38;19.30;99.90
47604;DHT22;33326;51.116;6.900;2022-10-04T11:04:44;20.50;99.90
47604;DHT22;33326;51.116;6.900;2022-10-04T11:10:17;20.70;99.90
47604;DHT22;33326;51.116;6.900;2022-10-04T11:27:08;21.50;97.40
47604;DHT22;33326;51.116;6.900;2022-10-04T11:38:25;22.30;95.80
47604;DHT22;33326;51.116;6.900;2022-10-04T11:43:57;22.50;96.80
47604;DHT22;33326;51.116;6.900;2022-10-04T11:49:21;22.70;96.40
47604;DHT22;33326;51.116;6.900;2022-10-04T11:54:46;23.10;95.50
47604;DHT22;33326;51.116;6.900;2022-10-04T11:59:58;23.50;95.10
47604;DHT22;33326;51.116;6.900;2022-10-04T12:05:22;24.10;96.20
47604;DHT22;33326;51.116;6.900;2022-10-04T12:10:33;24.40;92.90
47604;DHT22;33326;51.116;6.900;2022-10-04T12:15:59;25.10;93.00
47604;DHT22;33326;51.116;6.900;2022-10-04T12:21:27;25.80;91.00
47604;DHT22;33326;51.116;6.900;2022-10-04T12:27:09;26.10;89.30
47604;DHT22;33326;51.116;6.900;2022-10-04T12:32:18;27.20;87.00
47604;DHT22;33326;51.116;6.900;2022-10-04T12:37:31;28.50;87.00
47604;DHT22;33326;51.116;6.900;2022-10-04T12:42:39;29.50;78.60
47604;DHT22;33326;51.116;6.900;2022-10-04T12:48:01;29.40;82.20
47604;DHT22;33326;51.116;6.900;2022-10-04T12:53:16;30.10;78.50
47604;DHT22;33326;51.116;6.900;2022-10-04T12:58:22;30.80;76.20
47604;DHT22;33326;51.116;6.900;2022-10-04T13:03:37;31.00;74.70
47604;DHT22;33326;51.116;6.900;2022-10-04T13:08:58;32.30;72.90
47604;DHT22;33326;51.116;6.900;2022-10-04T13:14:05;33.90;66.60
47604;DHT22;33326;51.116;6.900;2022-10-04T13:19:21;34.70;65.70
47604;DHT22;33326;51.116;6.900;2022-10-04T13:24:30;35.70;60.00
47604;DHT22;33326;51.116;6.900;2022-10-04T13:29:58;35.10;61.90
47604;DHT22;33326;51.116;6.900;2022-10-04T13:35:13;35.50;60.60
47604;DHT22;33326;51.116;6.900;2022-10-04T13:40:28;36.20;60.60
47604;DHT22;33326;51.116;6.900;2022-10-04T13:45:42;36.30;56.80
47604;DHT22;33326;51.116;6.900;2022-10-04T13:51:05;36.00;59.30
47604;DHT22;33326;51.116;6.900;2022-10-04T13:56:21;36.20;58.00
47604;DHT22;33326;51.116;6.900;2022-10-04T14:02:03;37.50;55.60
47604;DHT22;33326;51.116;6.900;2022-10-04T14:07:43;38.40;53.60
47604;DHT22;33326;51.116;6.900;2022-10-04T14:13:12;38.40;54.70
47604;DHT22;33326;51.116;6.900;2022-10-04T14:35:15;37.00;54.20
47604;DHT22;33326;51.116;6.900;2022-10-04T14:46:20;39.00;50.40
47604;DHT22;33326;51.116;6.900;2022-10-04T14:56:54;39.50;52.00
47604;DHT22;33326;51.116;6.900;2022-10-04T15:02:40;39.40;51.30
47604;DHT22;33326;51.116;6.900;2022-10-04T15:07:48;39.30;51.80
47604;DHT22;33326;51.116;6.900;2022-10-04T15:13:00;38.70;51.10
47604;DHT22;33326;51.116;6.900;2022-10-04T15:18:19;38.00;52.30
47604;DHT22;33326;51.116;6.900;2022-10-04T15:23:31;37.10;52.90
47604;DHT22;33326;51.116;6.900;2022-10-04T15:28:51;36.70;52.90
47604;DHT22;33326;51.116;6.900;2022-10-04T15:34:08;35.60;51.50
47604;DHT22;33326;51.116;6.900;2022-10-04T15:39:58;34.10;53.70
47604;DHT22;33326;51.116;6.900;2022-10-04T15:50:59;30.90;54.90
47604;DHT22;33326;51.116;6.900;2022-10-04T15:56:12;29.40;57.60
47604;DHT22;33326;51.116;6.900;2022-10-04T16:01:31;28.50;60.40
47604;DHT22;33326;51.116;6.900;2022-10-04T16:06:43;27.40;61.80
47604;DHT22;33326;51.116;6.900;2022-10-04T16:11:55;26.40;63.20
47604;DHT22;33326;51.116;6.900;2022-10-04T16:17:17;25.50;65.30
47604;DHT22;33326;51.116;6.900;2022-10-04T16:22:28;24.80;67.30
47604;DHT22;33326;51.116;6.900;2022-10-04T16:27:48;24.00;69.20
47604;DHT22;33326;51.116;6.900;2022-10-04T16:38:24;22.90;73.50
47604;DHT22;33326;51.116;6.900;2022-10-04T16:43:30;22.30;75.70
47604;DHT22;33326;51.116;6.900;2022-10-04T16:48:38;22.00;77.90
47604;DHT22;33326;51.116;6.900;2022-10-04T16:53:50;21.60;80.70
47604;DHT22;33326;51.116;6.900;2022-10-04T16:58:59;21.20;84.50
47604;DHT22;33326;51.116;6.900;2022-10-04T17:04:14;20.90;90.00
47604;DHT22;33326;51.116;6.900;2022-10-04T17:09:27;20.60;92.10
47604;DHT22;33326;51.116;6.900;2022-10-04T17:14:55;20.30;94.20
47604;DHT22;33326;51.116;6.900;2022-10-04T17:20:03;20.10;96.70
47604;DHT22;33326;51.116;6.900;2022-10-04T17:25:17;19.80;98.30
47604;DHT22;33326;51.116;6.900;2022-10-04T17:30:23;19.60;99.90
47604;DHT22;33326;51.116;6.900;2022-10-04T17:35:50;19.30;99.90
47604;DHT22;33326;51.116;6.900;2022-10-04T17:41:04;19.20;99.90
47604;DHT22;33326;51.116;6.900;2022-10-04T17:46:16;19.00;99.90
47604;DHT22;33326;51.116;6.900;2022-10-04T17:51:38;18.90;99.90
47604;DHT22;33326;51.116;6.900;2022-10-04T17:57:16;18.70;99.90
47604;DHT22;33326;51.116;6.900;2022-10-04T18:02:28;18.60;99.90
47604;DHT22;33326;51.116;6.900;2022-10-04T18:07:38;18.50;99.90
47604;DHT22;33326;51.116;6.900;2022-10-04T18:12:48;18.30;99.90
47604;DHT22;33326;51.116;6.900;2022-10-04T18:17:52;18.10;99.90
47604;DHT22;33326;51.116;6.900;2022-10-04T18:23:15;17.80;99.90
47604;DHT22;33326;51.116;6.900;2022-10-04T18:28:21;17.80;99.90
47604;DHT22;33326;51.116;6.900;2022-10-04T18:33:30;17.60;99.90
47604;DHT22;33326;51.116;6.900;2022-10-04T18:38:57;17.40;99.90
47604;DHT22;33326;51.116;6.900;2022-10-04T18:44:12;17.40;99.90
47604;DHT22;33326;51.116;6.900;2022-10-04T18:49:16;17.50;99.90
47604;DHT22;33326;51.116;6.900;2022-10-04T18:54:25;17.40;99.90
47604;DHT22;33326;51.116;6.900;2022-10-04T18:59:39;17.40;99.90
47604;DHT22;33326;51.116;6.900;2022-10-04T19:05:09;17.30;99.90
47604;DHT22;33326;51.116;6.900;2022-10-04T19:10:24;17.20;99.90
47604;DHT22;33326;51.116;6.900;2022-10-04T19:15:41;17.10;99.90
47604;DHT22;33326;51.116;6.900;2022-10-04T19:20:47;17.00;99.90
47604;DHT22;33326;51.116;6.900;2022-10-04T19:25:55;16.80;99.90
47604;DHT22;33326;51.116;6.900;2022-10-04T19:31:05;16.70;99.90
47604;DHT22;33326;51.116;6.900;2022-10-04T19:36:35;16.70;99.90
47604;DHT22;33326;51.116;6.900;2022-10-04T19:41:58;16.80;99.90
47604;DHT22;33326;51.116;6.900;2022-10-04T19:47:14;16.80;99.90
47604;DHT22;33326;51.116;6.900;2022-10-04T19:52:22;16.70;99.90
47604;DHT22;33326;51.116;6.900;2022-10-04T19:57:34;16.70;99.90
47604;DHT22;33326;51.116;6.900;2022-10-04T20:02:39;16.60;99.90
47604;DHT22;33326;51.116;6.900;2022-10-04T20:07:47;16.50;99.90
47604;DHT22;33326;51.116;6.900;2022-10-04T20:18:55;16.30;99.90
47604;DHT22;33326;51.116;6.900;2022-10-04T20:23:58;16.20;99.90
47604;DHT22;33326;51.116;6.900;2022-10-04T20:29:01;16.00;99.90
47604;DHT22;33326;51.116;6.900;2022-10-04T20:34:30;15.90;99.90
47604;DHT22;33326;51.116;6.900;2022-10-04T20:45:20;15.70;99.90
47604;DHT22;33326;51.116;6.900;2022-10-04T20:50:33;15.70;99.90
47604;DHT22;33326;51.116;6.900;2022-10-04T20:55:36;15.60;99.90
47604;DHT22;33326;51.116;6.900;2022-10-04T21:00:50;15.40;99.90
47604;DHT22;33326;51.116;6.900;2022-10-04T21:06:05;15.40;99.90
47604;DHT22;33326;51.116;6.900;2022-10-04T21:11:16;15.40;99.90
47604;DHT22;33326;51.116;6.900;2022-10-04T21:16:39;15.40;99.90
47604;DHT22;33326;51.116;6.900;2022-10-04T21:21:49;15.30;99.90
47604;DHT22;33326;51.116;6.900;2022-10-04T21:26:54;15.30;99.90
47604;DHT22;33326;51.116;6.900;2022-10-04T21:31:56;15.30;99.90
47604;DHT22;33326;51.116;6.900;2022-10-04T21:36:59;15.20;99.90
47604;DHT22;33326;51.116;6.900;2022-10-04T21:42:01;15.10;99.90
47604;DHT22;33326;51.116;6.900;2022-10-04T21:47:03;15.10;99.90
47604;DHT22;33326;51.116;6.900;2022-10-04T21:52:07;15.10;99.90
47604;DHT22;33326;51.116;6.900;2022-10-04T21:57:09;15.00;99.90
47604;DHT22;33326;51.116;6.900;2022-10-04T22:02:10;14.80;99.90
47604;DHT22;33326;51.116;6.900;2022-10-04T22:07:14;14.80;99.90
47604;DHT22;33326;51.116;6.900;2022-10-04T22:12:15;14.70;99.90
47604;DHT22;33326;51.116;6.900;2022-10-04T22:17:17;14.60;99.90
47604;DHT22;33326;51.116;6.900;2022-10-04T22:22:21;14.60;99.90
47604;DHT22;33326;51.116;6.900;2022-10-04T22:27:22;14.50;99.90
47604;DHT22;33326;51.116;6.900;2022-10-04T22:32:26;14.40;99.90
47604;DHT22;33326;51.116;6.900;2022-10-04T22:37:29;14.50;99.90
47604;DHT22;33326;51.116;6.900;2022-10-04T22:42:31;14.30;99.90
47604;DHT22;33326;51.116;6.900;2022-10-04T22:47:33;14.20;99.90
47604;DHT22;33326;51.116;6.900;2022-10-04T22:52:36;14.30;99.90
47604;DHT22;33326;51.116;6.900;2022-10-04T22:57:38;14.30;99.90
47604;DHT22;33326;51.116;6.900;2022-10-04T23:02:40;14.10;99.90
47604;DHT22;33326;51.116;6.900;2022-10-04T23:07:45;14.10;99.90
47604;DHT22;33326;51.116;6.900;2022-10-04T23:12:47;14.30;99.90
47604;DHT22;33326;51.116;6.900;2022-10-04T23:17:52;14.20;99.90
47604;DHT22;33326;51.116;6.900;2022-10-04T23:22:58;14.20;99.90
47604;DHT22;33326;51.116;6.900;2022-10-04T23:28:06;14.20;99.90
47604;DHT22;33326;51.116;6.900;2022-10-04T23:33:14;14.30;99.90
47604;DHT22;33326;51.116;6.900;2022-10-04T23:38:19;14.30;99.90
47604;DHT22;33326;51.116;6.900;2022-10-04T23:43:23;14.30;99.90
47604;DHT22;33326;51.116;6.900;2022-10-04T23:48:28;14.20;99.90
47604;DHT22;33326;51.116;6.900;2022-10-04T23:53:33;14.10;99.90
47604;DHT22;33326;51.116;6.900;2022-10-04T23:58:37;14.10;99.90
